createdAt,value
2018-11-05T00:01:20.112Z,24.23
2018-11-05T00:03:50.700Z,23.07
2018-11-05T00:06:20.516Z,23.53
2018-11-05T00:08:51.186Z,23.33
2018-11-05T00:11:21.084Z,24.17
2018-11-05T00:13:51.022Z,23.50
2018-11-05T00:16:20.822Z,26.10
2018-11-05T00:18:51.307Z,24.37
2018-11-05T00:21:21.130Z,26.00
2018-11-05T00:23:51.655Z,25.97
2018-11-05T00:26:21.452Z,27.73
2018-11-05T00:28:51.200Z,28.27
2018-11-05T00:31:20.935Z,25.00
2018-11-05T00:33:50.887Z,30.43
2018-11-05T00:36:21.087Z,28.23
2018-11-05T00:38:50.985Z,29.57
2018-11-05T00:41:21.042Z,27.50
2018-11-05T00:43:51.528Z,32.83
2018-11-05T00:46:21.928Z,31.50
2018-11-05T00:48:52.275Z,31.17
2018-11-05T00:51:22.321Z,30.10
2018-11-05T00:53:52.176Z,33.20
2018-11-05T00:56:22.510Z,34.63
2018-11-05T00:58:52.401Z,33.17
2018-11-05T01:01:22.500Z,38.07
2018-11-05T01:03:52.331Z,38.70
2018-11-05T01:06:22.597Z,35.33
2018-11-05T01:08:52.729Z,38.40
2018-11-05T01:11:22.967Z,44.07
2018-11-05T01:13:52.800Z,35.83
2018-11-05T01:16:23.290Z,38.33
2018-11-05T01:18:53.669Z,44.60
2018-11-05T01:21:23.884Z,42.97
2018-11-05T01:23:53.905Z,40.17
2018-11-05T01:26:24.220Z,40.97
2018-11-05T01:28:54.215Z,39.67
2018-11-05T01:31:24.415Z,39.93
2018-11-05T01:33:54.831Z,42.00
2018-11-05T01:36:25.416Z,42.00
2018-11-05T01:38:55.545Z,38.57
2018-11-05T01:41:25.884Z,36.67
2018-11-05T01:43:55.709Z,39.40
2018-11-05T01:46:26.601Z,37.70
2018-11-05T01:48:56.870Z,41.37
2018-11-05T01:51:27.146Z,42.97
2018-11-05T01:53:57.146Z,41.87
2018-11-05T01:56:27.456Z,36.37
2018-11-05T01:58:57.329Z,43.37
2018-11-05T02:01:27.924Z,39.33
2018-11-05T02:03:57.866Z,37.77
2018-11-05T02:06:28.164Z,40.73
2018-11-05T02:08:58.777Z,41.20
2018-11-05T02:11:28.663Z,41.27
2018-11-05T02:13:59.236Z,40.90
2018-11-05T02:16:29.054Z,42.97
2018-11-05T02:18:59.597Z,41.03
2018-11-05T02:21:29.584Z,44.97
2018-11-05T02:23:59.791Z,40.10
2018-11-05T02:26:31.069Z,44.17
2018-11-05T02:29:00.926Z,47.17
2018-11-05T02:31:30.959Z,45.70
2018-11-05T02:34:00.747Z,44.33
2018-11-05T02:36:30.890Z,49.73
2018-11-05T02:39:00.805Z,45.17
2018-11-05T02:41:30.787Z,52.37
2018-11-05T02:44:00.491Z,47.93
2018-11-05T02:46:30.649Z,50.20
2018-11-05T02:49:01.789Z,51.63
2018-11-05T02:51:31.833Z,50.30
2018-11-05T02:54:01.819Z,50.77
2018-11-05T02:56:31.883Z,46.83
2018-11-05T02:59:01.968Z,52.67
2018-11-05T03:01:32.499Z,49.33
2018-11-05T03:04:02.745Z,47.57
2018-11-05T03:06:32.896Z,46.83
2018-11-05T03:09:02.855Z,48.37
2018-11-05T03:11:32.594Z,47.73
2018-11-05T03:14:03.121Z,49.07
2018-11-05T03:16:32.998Z,49.53
2018-11-05T03:19:02.920Z,47.90
2018-11-05T03:21:33.520Z,50.30
2018-11-05T03:24:03.490Z,46.50
2018-11-05T03:26:33.679Z,47.80
2018-11-05T03:29:03.784Z,46.73
2018-11-05T03:31:33.787Z,44.90
2018-11-05T03:34:03.799Z,45.53
2018-11-05T03:36:33.909Z,43.63
2018-11-05T03:39:04.684Z,47.47
2018-11-05T03:41:36.355Z,46.47
2018-11-05T03:44:07.004Z,43.73
2018-11-05T03:46:37.320Z,43.27
2018-11-05T03:49:08.873Z,43.90
2018-11-05T03:51:38.961Z,44.43
2018-11-05T03:54:09.699Z,44.73
2018-11-05T03:56:39.758Z,43.93
2018-11-05T03:59:09.946Z,47.43
2018-11-05T04:01:39.864Z,45.50
2018-11-05T04:04:09.629Z,41.97
2018-11-05T04:06:41.740Z,44.47
2018-11-05T04:09:12.353Z,44.77
2018-11-05T04:11:42.131Z,43.17
2018-11-05T04:14:12.025Z,43.10
2018-11-05T04:16:42.569Z,42.93
2018-11-05T04:19:12.905Z,43.40
2018-11-05T04:21:43.669Z,43.73
2018-11-05T04:24:14.961Z,43.93
2018-11-05T04:26:45.889Z,41.37
2018-11-05T04:29:15.579Z,44.07
2018-11-05T04:31:47.449Z,41.37
2018-11-05T04:34:17.825Z,46.80
2018-11-05T04:36:49.020Z,43.47
2018-11-05T04:39:18.909Z,45.53
2018-11-05T04:41:49.428Z,41.47
2018-11-05T04:44:20.399Z,42.60
2018-11-05T04:46:50.780Z,46.47
2018-11-05T04:49:20.698Z,41.13
2018-11-05T04:51:50.486Z,43.73
2018-11-05T04:54:20.235Z,40.20
2018-11-05T04:56:50.295Z,44.03
2018-11-05T04:59:20.655Z,43.27
2018-11-05T05:01:51.104Z,45.70
2018-11-05T05:04:20.899Z,44.30
2018-11-05T05:06:50.630Z,45.27
2018-11-05T05:09:20.433Z,44.97
2018-11-05T05:11:50.201Z,46.93
2018-11-05T05:14:19.920Z,42.53
2018-11-05T05:16:50.026Z,42.60
2018-11-05T05:19:19.814Z,45.70
2018-11-05T05:21:50.325Z,45.07
2018-11-05T05:24:20.843Z,43.17
2018-11-05T05:26:51.818Z,46.90
2018-11-05T05:29:22.265Z,44.23
2018-11-05T05:31:52.057Z,47.20
2018-11-05T05:34:21.890Z,43.80
2018-11-05T05:36:52.330Z,43.20
2018-11-05T05:39:22.824Z,45.17
2018-11-05T05:41:52.596Z,48.73
2018-11-05T05:44:22.383Z,43.23
2018-11-05T05:46:53.208Z,48.53
2018-11-05T05:49:23.079Z,46.10
2018-11-05T05:51:52.770Z,49.97
2018-11-05T05:54:22.583Z,44.90
2018-11-05T05:56:52.405Z,44.53
2018-11-05T05:59:23.333Z,48.37
2018-11-05T06:01:53.288Z,47.50
2018-11-05T06:04:23.146Z,45.50
2018-11-05T06:06:52.935Z,50.20
2018-11-05T06:09:23.450Z,48.20
2018-11-05T06:11:53.288Z,44.63
2018-11-05T06:14:23.084Z,48.73
2018-11-05T06:16:52.901Z,47.37
2018-11-05T06:19:22.900Z,44.30
2018-11-05T06:21:53.338Z,49.00
2018-11-05T06:24:23.118Z,43.83
2018-11-05T06:26:53.471Z,41.20
2018-11-05T06:29:24.358Z,45.73
2018-11-05T06:31:54.314Z,46.90
2018-11-05T06:34:24.324Z,44.90
2018-11-05T06:36:55.595Z,47.33
2018-11-05T06:39:26.479Z,45.83
2018-11-05T06:41:56.746Z,45.37
2018-11-05T06:44:27.057Z,46.20
2018-11-05T06:46:57.992Z,45.27
2018-11-05T06:49:28.229Z,43.93
2018-11-05T06:51:58.251Z,47.00
2018-11-05T06:54:28.332Z,46.60
2018-11-05T06:56:59.012Z,44.50
2018-11-05T06:59:30.034Z,47.93
2018-11-05T07:02:00.257Z,45.77
2018-11-05T07:04:30.385Z,44.63
2018-11-05T07:07:01.616Z,40.83
2018-11-05T07:09:31.628Z,41.17
2018-11-05T07:12:01.729Z,39.33
2018-11-05T07:14:32.473Z,43.87
2018-11-05T07:17:02.832Z,44.50
2018-11-05T07:19:32.960Z,44.23
2018-11-05T07:22:02.918Z,42.77
2018-11-05T07:24:33.610Z,40.53
2018-11-05T07:27:04.288Z,41.57
2018-11-05T07:29:34.959Z,39.03
2018-11-05T07:32:05.916Z,43.77
2018-11-05T07:34:36.010Z,37.37
2018-11-05T07:37:06.145Z,40.60
2018-11-05T07:39:36.344Z,39.73
2018-11-05T07:42:06.475Z,43.10
2018-11-05T07:44:37.446Z,39.40
2018-11-05T07:47:07.528Z,38.80
2018-11-05T07:49:37.883Z,39.83
2018-11-05T07:52:08.185Z,34.83
2018-11-05T07:54:38.199Z,40.77
2018-11-05T07:57:08.434Z,36.37
2018-11-05T07:59:38.648Z,39.10
2018-11-05T08:02:08.523Z,36.33
2018-11-05T08:04:38.342Z,35.93
2018-11-05T08:07:08.892Z,40.33
2018-11-05T08:09:39.441Z,35.57
2018-11-05T08:12:09.857Z,35.40
2018-11-05T08:14:40.393Z,37.60
2018-11-05T08:17:10.602Z,37.60
2018-11-05T08:19:41.149Z,35.30
2018-11-05T08:22:11.258Z,33.87
2018-11-05T08:24:41.696Z,33.33
2018-11-05T08:27:11.897Z,36.10
2018-11-05T08:29:41.929Z,34.07
2018-11-05T08:32:12.152Z,31.43
2018-11-05T08:34:42.365Z,31.40
2018-11-05T08:37:12.942Z,38.70
2018-11-05T08:39:44.142Z,33.23
2018-11-05T08:42:14.936Z,34.30
2018-11-05T08:44:45.034Z,33.57
2018-11-05T08:47:15.291Z,32.60
2018-11-05T08:49:45.652Z,33.37
2018-11-05T08:52:16.861Z,34.33
2018-11-05T08:54:47.127Z,31.07
2018-11-05T08:57:17.139Z,30.53
2018-11-05T08:59:47.052Z,32.10
2018-11-05T09:02:17.353Z,33.40
2018-11-05T09:04:47.685Z,34.40
2018-11-05T09:07:17.927Z,33.00
2018-11-05T09:09:48.160Z,32.83
2018-11-05T09:12:18.179Z,32.73
2018-11-05T09:14:48.594Z,35.13
2018-11-05T09:17:24.551Z,31.63
2018-11-05T09:19:54.654Z,30.93
2018-11-05T09:22:24.812Z,34.40
2018-11-05T09:24:55.208Z,33.27
2018-11-05T09:27:26.359Z,33.57
2018-11-05T09:29:56.697Z,38.17
2018-11-05T09:32:26.839Z,34.77
2018-11-05T09:34:58.347Z,31.47
2018-11-05T09:37:29.405Z,30.00
2018-11-05T09:39:59.802Z,34.17
2018-11-05T09:42:30.689Z,34.97
2018-11-05T09:45:01.546Z,31.47
2018-11-05T09:47:31.632Z,30.70
2018-11-05T09:50:03.104Z,32.50
2018-11-05T09:52:33.141Z,32.93
2018-11-05T09:55:04.554Z,33.90
2018-11-05T09:57:35.474Z,34.33
2018-11-05T10:00:07.029Z,34.07
2018-11-05T10:02:42.914Z,35.83
2018-11-05T10:05:14.085Z,34.27
2018-11-05T10:07:44.513Z,34.67
2018-11-05T10:10:15.454Z,33.73
2018-11-05T10:12:46.898Z,28.67
2018-11-05T10:15:17.951Z,32.77
2018-11-05T10:17:48.834Z,29.53
2018-11-05T10:20:23.297Z,31.80
2018-11-05T10:22:53.999Z,31.57
2018-11-05T10:25:24.113Z,33.97
2018-11-05T10:27:54.332Z,31.63
2018-11-05T10:30:25.795Z,31.27
2018-11-05T10:32:55.895Z,29.97
2018-11-05T10:35:31.114Z,29.23
2018-11-05T10:38:01.344Z,35.13
2018-11-05T10:40:31.507Z,32.00
2018-11-05T10:43:02.859Z,31.07
2018-11-05T10:45:33.604Z,33.40
2018-11-05T10:48:04.268Z,30.87
2018-11-05T10:50:34.560Z,31.23
2018-11-05T10:53:06.291Z,28.10
2018-11-05T10:55:36.394Z,33.77
2018-11-05T10:58:07.575Z,31.50
2018-11-05T11:00:42.717Z,31.27
2018-11-05T11:05:46.212Z,33.03
2018-11-05T11:08:16.132Z,30.13
2018-11-05T11:10:46.027Z,27.80
2018-11-05T11:13:16.720Z,28.60
2018-11-05T11:15:46.899Z,28.57
2018-11-05T11:18:17.655Z,29.43
2018-11-05T11:20:47.826Z,31.67
2018-11-05T11:23:18.306Z,33.97
2018-11-05T11:25:48.096Z,30.77
2018-11-05T11:28:18.197Z,31.97
2018-11-05T11:30:48.828Z,30.57
2018-11-05T11:33:18.872Z,29.10
2018-11-05T11:35:49.201Z,30.63
2018-11-05T11:38:19.501Z,28.47
2018-11-05T11:40:49.536Z,28.83
2018-11-05T11:43:19.418Z,28.13
2018-11-05T11:45:49.360Z,31.37
2018-11-05T11:48:19.260Z,31.27
2018-11-05T11:50:49.473Z,28.17
2018-11-05T11:53:19.325Z,28.43
2018-11-05T11:55:50.154Z,30.30
2018-11-05T11:58:20.005Z,31.77
2018-11-05T12:00:50.270Z,29.33
2018-11-05T12:03:20.292Z,31.47
2018-11-05T12:05:50.370Z,29.93
2018-11-05T12:08:21.087Z,28.03
2018-11-05T12:10:50.999Z,30.57
2018-11-05T12:13:21.004Z,27.30
2018-11-05T12:15:51.329Z,31.43
2018-11-05T12:18:21.359Z,30.43
2018-11-05T12:20:52.121Z,27.97
2018-11-05T12:23:22.283Z,28.87
2018-11-05T12:25:52.233Z,27.63
2018-11-05T12:28:22.400Z,28.87
2018-11-05T12:30:52.446Z,26.40
2018-11-05T12:33:22.434Z,24.63
2018-11-05T12:35:52.482Z,26.83
2018-11-05T12:38:22.400Z,27.03
2018-11-05T12:40:52.447Z,30.50
2018-11-05T12:43:22.321Z,25.87
2018-11-05T12:45:53.057Z,26.77
2018-11-05T12:48:23.001Z,25.40
2018-11-05T12:50:52.814Z,33.10
2018-11-05T12:53:29.340Z,32.73
2018-11-05T12:55:59.398Z,28.13
2018-11-05T12:58:29.517Z,28.20
2018-11-05T13:00:59.889Z,27.90
2018-11-05T13:03:30.032Z,25.47
2018-11-05T13:06:00.109Z,30.80
2018-11-05T13:08:30.333Z,29.83
2018-11-05T13:11:00.407Z,28.03
2018-11-05T13:13:30.344Z,28.07
2018-11-05T13:16:00.217Z,25.93
2018-11-05T13:18:30.141Z,27.63
2018-11-05T13:21:00.597Z,27.67
2018-11-05T13:23:35.409Z,29.57
2018-11-05T13:26:05.302Z,25.97
2018-11-05T13:28:35.546Z,25.50
2018-11-05T13:31:05.671Z,30.73
2018-11-05T13:33:36.215Z,26.67
2018-11-05T13:36:06.609Z,28.07
2018-11-05T13:38:37.120Z,26.33
2018-11-05T13:41:07.780Z,28.97
2018-11-05T13:43:38.225Z,27.20
2018-11-05T13:46:09.176Z,29.73
2018-11-05T13:48:39.707Z,29.93
2018-11-05T13:51:10.107Z,27.97
2018-11-05T13:53:40.739Z,28.87
2018-11-05T13:56:11.200Z,29.70
2018-11-05T13:58:41.219Z,27.97
2018-11-05T14:01:11.604Z,28.70
2018-11-05T14:03:41.891Z,31.80
2018-11-05T14:06:12.885Z,31.13
2018-11-05T14:08:43.175Z,28.77
2018-11-05T14:11:13.241Z,30.43
2018-11-05T14:13:43.895Z,28.83
2018-11-05T14:16:14.287Z,27.80
2018-11-05T14:18:44.901Z,31.53
2018-11-05T14:21:15.231Z,29.90
2018-11-05T14:23:45.196Z,29.50
2018-11-05T14:26:15.457Z,31.53
2018-11-05T14:28:46.250Z,27.93
2018-11-05T14:31:16.123Z,30.00
2018-11-05T14:33:46.324Z,32.03
2018-11-05T14:36:17.091Z,32.67
2018-11-05T14:38:51.539Z,30.57
2018-11-05T14:41:22.035Z,32.23
2018-11-05T14:43:52.765Z,32.87
2018-11-05T14:46:23.899Z,29.60
2018-11-05T14:48:54.040Z,32.07
2018-11-05T14:51:24.886Z,28.67
2018-11-05T14:53:55.277Z,33.67
2018-11-05T14:56:25.614Z,30.93
2018-11-05T14:58:55.957Z,29.23
2018-11-05T15:01:27.005Z,31.63
2018-11-05T15:03:57.190Z,36.13
2018-11-05T15:06:27.520Z,29.97
2018-11-05T15:08:57.539Z,37.50
2018-11-05T15:11:27.579Z,32.30
2018-11-05T15:13:57.772Z,34.27
2018-11-05T15:16:27.656Z,32.93
2018-11-05T15:18:57.882Z,37.07
2018-11-05T15:21:27.688Z,38.00
2018-11-05T15:23:57.528Z,36.00
2018-11-05T15:26:27.553Z,34.43
2018-11-05T15:28:57.635Z,34.40
2018-11-05T15:31:28.287Z,39.73
2018-11-05T15:33:58.380Z,33.30
2018-11-05T15:36:28.590Z,35.47
2018-11-05T15:38:58.802Z,37.17
2018-11-05T15:41:28.704Z,40.80
2018-11-05T15:43:59.371Z,38.57
2018-11-05T15:46:29.626Z,36.10
2018-11-05T15:48:59.531Z,34.80
2018-11-05T15:51:29.926Z,38.50
2018-11-05T15:54:00.208Z,38.20
2018-11-05T15:56:31.109Z,39.47
2018-11-05T15:59:00.893Z,37.73
2018-11-05T16:01:31.051Z,39.80
2018-11-05T16:04:00.984Z,40.17
2018-11-05T16:06:30.881Z,42.27
2018-11-05T16:09:00.982Z,37.67
2018-11-05T16:11:31.368Z,42.30
2018-11-05T16:14:01.215Z,44.77
2018-11-05T16:16:31.615Z,45.80
2018-11-05T16:19:02.273Z,40.60
2018-11-05T16:21:32.182Z,44.63
2018-11-05T16:24:02.103Z,40.47
2018-11-05T16:26:32.145Z,42.50
2018-11-05T16:29:01.957Z,40.00
2018-11-05T16:31:32.223Z,46.43
2018-11-05T16:34:02.276Z,48.57
2018-11-05T16:36:32.563Z,49.90
2018-11-05T16:39:02.481Z,41.37
2018-11-05T16:41:32.530Z,43.50
2018-11-05T16:44:02.405Z,54.20
2018-11-05T16:46:32.633Z,49.27
2018-11-05T16:49:02.441Z,44.10
2018-11-05T16:51:32.663Z,54.83
2018-11-05T16:54:02.895Z,56.07
2018-11-05T16:56:33.172Z,51.17
2018-11-05T16:59:03.190Z,52.20
2018-11-05T17:01:33.573Z,52.37
2018-11-05T17:04:03.422Z,50.97
2018-11-05T17:06:33.700Z,49.23
2018-11-05T17:09:03.729Z,46.17
2018-11-05T17:11:34.069Z,47.27
2018-11-05T17:14:04.251Z,48.00
2018-11-05T17:16:34.339Z,49.43
2018-11-05T17:19:04.358Z,54.73
2018-11-05T17:21:35.718Z,53.00
2018-11-05T17:24:06.297Z,52.20
2018-11-05T17:26:36.515Z,53.27
2018-11-05T17:29:06.578Z,56.97
2018-11-05T17:31:37.159Z,50.57
2018-11-05T17:34:07.164Z,57.93
2018-11-05T17:36:37.353Z,55.80
2018-11-05T17:39:11.781Z,58.53
2018-11-05T17:41:42.646Z,56.37
2018-11-05T17:44:13.691Z,54.93
2018-11-05T17:46:43.813Z,56.53
2018-11-05T17:49:14.328Z,62.87
2018-11-05T17:51:44.371Z,67.87
2018-11-05T17:54:14.389Z,59.57
2018-11-05T17:56:44.542Z,60.67
2018-11-05T17:59:14.284Z,59.43
2018-11-05T18:01:44.087Z,59.03
2018-11-05T18:04:13.970Z,60.70
2018-11-05T18:06:43.830Z,62.90
2018-11-05T18:09:13.736Z,67.87
2018-11-05T18:11:43.539Z,62.60
2018-11-05T18:14:13.350Z,58.00
2018-11-05T18:16:43.129Z,65.70
2018-11-05T18:19:13.173Z,61.33
2018-11-05T18:21:42.982Z,67.83
2018-11-05T18:24:12.952Z,70.47
2018-11-05T18:26:42.832Z,59.63
2018-11-05T18:29:12.714Z,66.83
2018-11-05T18:31:43.296Z,67.33
2018-11-05T18:34:13.129Z,74.07
2018-11-05T18:36:42.979Z,68.97
2018-11-05T18:39:12.848Z,71.77
2018-11-05T18:41:42.655Z,72.93
2018-11-05T18:44:12.567Z,69.17
2018-11-05T18:46:42.577Z,69.13
2018-11-05T18:49:12.334Z,67.80
2018-11-05T18:51:42.561Z,80.40
2018-11-05T18:54:12.240Z,79.77
2018-11-05T18:56:42.504Z,75.83
2018-11-05T18:59:12.263Z,85.60
2018-11-05T19:01:42.561Z,75.47
2018-11-05T19:04:12.471Z,77.67
2018-11-05T19:06:43.052Z,80.20
2018-11-05T19:09:12.919Z,77.60
2018-11-05T19:11:43.338Z,77.33
2018-11-05T19:14:13.442Z,77.10
2018-11-05T19:16:43.522Z,79.13
2018-11-05T19:19:13.401Z,77.00
2018-11-05T19:21:43.579Z,79.63
2018-11-05T19:24:13.605Z,76.77
2018-11-05T19:26:43.729Z,75.30
2018-11-05T19:29:13.499Z,81.23
2018-11-05T19:31:44.197Z,64.27
2018-11-05T19:34:14.184Z,74.77
2018-11-05T19:36:44.586Z,70.27
2018-11-05T19:39:14.909Z,79.33
2018-11-05T19:41:45.288Z,78.93
2018-11-05T19:44:15.271Z,79.90
2018-11-05T19:46:45.702Z,83.33
2018-11-05T19:49:16.254Z,73.83
2018-11-05T19:51:47.548Z,78.57
2018-11-05T19:54:18.312Z,76.80
2018-11-05T19:56:48.209Z,82.33
2018-11-05T19:59:18.213Z,75.17
2018-11-05T20:01:48.367Z,74.03
2018-11-05T20:04:18.987Z,74.33
2018-11-05T20:06:49.873Z,81.20
2018-11-05T20:09:20.301Z,76.27
2018-11-05T20:11:50.653Z,74.03
2018-11-05T20:14:20.679Z,78.10
2018-11-05T20:16:51.314Z,76.80
2018-11-05T20:19:22.087Z,85.83
2018-11-05T20:21:52.944Z,81.97
2018-11-05T20:24:23.389Z,77.73
2018-11-05T20:26:53.792Z,72.77
2018-11-05T20:29:24.387Z,76.40
2018-11-05T20:31:55.163Z,71.97
2018-11-05T20:34:30.318Z,74.40
2018-11-05T20:37:00.106Z,71.70
2018-11-05T20:39:30.129Z,68.90
2018-11-05T20:42:05.582Z,70.70
2018-11-05T20:44:36.201Z,74.27
2018-11-05T20:47:06.825Z,64.47
2018-11-05T20:49:37.285Z,75.60
2018-11-05T20:52:07.325Z,67.77
2018-11-05T20:54:37.738Z,72.77
2018-11-05T20:57:12.833Z,65.10
2018-11-05T20:59:48.173Z,62.67
2018-11-05T21:02:18.212Z,66.47
2018-11-05T21:04:49.061Z,68.63
2018-11-05T21:07:18.895Z,68.73
2018-11-05T21:09:48.916Z,64.03
2018-11-05T21:12:18.736Z,70.60
2018-11-05T21:14:49.082Z,61.70
2018-11-05T21:17:22.164Z,71.42
2018-11-05T21:19:55.123Z,68.90
2018-11-05T21:22:25.209Z,65.50
2018-11-05T21:24:55.271Z,63.90
2018-11-05T21:27:25.696Z,62.47
2018-11-05T21:29:58.836Z,72.70
2018-11-05T21:32:28.738Z,68.60
2018-11-05T21:34:59.159Z,84.13
2018-11-05T21:37:33.548Z,81.93
2018-11-05T21:40:04.141Z,82.00
2018-11-05T21:42:34.433Z,88.73
2018-11-05T21:45:04.977Z,85.23
2018-11-05T21:47:35.786Z,77.93
2018-11-05T21:50:09.053Z,75.37
2018-11-05T21:52:40.273Z,77.90
2018-11-05T21:55:10.577Z,79.90
2018-11-05T21:57:42.715Z,73.23
2018-11-05T22:00:17.728Z,73.30
2018-11-05T22:02:52.821Z,78.23
2018-11-05T22:05:22.666Z,70.57
2018-11-05T22:07:52.547Z,70.97
2018-11-05T22:10:22.513Z,68.73
2018-11-05T22:12:52.298Z,66.90
2018-11-05T22:15:22.152Z,63.17
2018-11-05T22:17:52.008Z,63.70
2018-11-05T22:20:21.809Z,60.47
2018-11-05T22:22:51.575Z,61.33
2018-11-05T22:25:21.424Z,60.03
2018-11-05T22:27:51.268Z,58.50
2018-11-05T22:30:21.110Z,54.20
2018-11-05T22:32:51.047Z,50.60
2018-11-05T22:35:21.172Z,55.00
2018-11-05T22:37:51.114Z,57.63
2018-11-05T22:40:20.928Z,60.13
2018-11-05T22:42:50.750Z,52.73
2018-11-05T22:45:20.757Z,56.70
2018-11-05T22:47:50.613Z,57.57
2018-11-05T22:50:20.607Z,76.77
2018-11-05T22:52:51.476Z,73.03
2018-11-05T22:55:21.550Z,69.27
2018-11-05T22:57:51.423Z,68.33
2018-11-05T23:00:26.522Z,66.07
2018-11-05T23:03:01.694Z,67.50
2018-11-05T23:05:32.237Z,63.60
2018-11-05T23:08:02.534Z,65.00
2018-11-05T23:10:32.568Z,65.87
2018-11-05T23:13:02.873Z,68.80
2018-11-05T23:15:32.960Z,69.67
2018-11-05T23:18:03.279Z,71.77
2018-11-05T23:20:33.204Z,67.47
2018-11-05T23:23:06.132Z,67.93
2018-11-05T23:25:36.013Z,67.77
2018-11-05T23:28:06.006Z,71.67
2018-11-05T23:30:36.013Z,71.60
2018-11-05T23:33:05.931Z,65.03
2018-11-05T23:35:35.831Z,66.20
2018-11-05T23:38:06.029Z,64.70
2018-11-05T23:40:35.971Z,70.30
2018-11-05T23:43:06.820Z,71.43
2018-11-05T23:45:36.864Z,68.77
2018-11-05T23:48:07.791Z,72.17
2018-11-05T23:50:37.969Z,69.63
2018-11-05T23:53:07.874Z,68.40
2018-11-05T23:55:37.641Z,65.07
2018-11-05T23:58:08.025Z,69.70
